^^
Grace C. Lehan Memorial Weather Station Historical Data
Daily Summary for January 18, 2022 Units:  Both    English   Metric
Daily Weekly Monthly Yearly
  High: Low: Average:
Temperature: 33.5 °F /  0.8 °C 27.9 °F /  -2.3 °C 30.5 °F /  -0.8 °C
Dew Point: 26 °F /  -3.3 °C 17.2 °F /  -8.2 °C 21.5 °F /  -5.8 °C
Humidity: 79% 63% 69%
Wind Speed: 19mph /  30.6km/h - 8.2mph /  13.2km/h
Wind Gust: 30mph /  48.3km/h - -
Wind- - WNW
Pressure: 29.65 in /  1003.9 hPa 29.30 in /  992.1 hPa -
Precipitation: 0.00 in /  0 mm    
 
 
Tabular Data for January 18, 2022
Time Temperature Dew Point Pressure Wind Wind Speed Wind Gust Humidity Rainfall Rate (Hourly) solar
00:04 33.5 °F /  0.8 °C 25.1 °F /  -3.8 °C 29.30in /  992.1hPa WNW 8.7mph /  14km/h 22mph /  35.4km/h 70.9% 0.00in /  0mm 0 W/m2
00:09 33.4 °F /  0.8 °C 24.7 °F /  -4.1 °C 29.31in /  992.4hPa WNW 9.6mph /  15.4km/h 22mph /  35.4km/h 70% 0.00in /  0mm 0 W/m2
00:14 33.3 °F /  0.7 °C 24.6 °F /  -4.1 °C 29.31in /  992.4hPa WNW 9.2mph /  14.8km/h 22mph /  35.4km/h 70% 0.00in /  0mm 0 W/m2
00:19 33.2 °F /  0.7 °C 24.2 °F /  -4.3 °C 29.31in /  992.4hPa WNW 8.9mph /  14.3km/h 22mph /  35.4km/h 69.2% 0.00in /  0mm 0 W/m2
00:24 33.2 °F /  0.7 °C 24.5 °F /  -4.2 °C 29.31in /  992.4hPa WNW 3.5mph /  5.6km/h 22mph /  35.4km/h 70% 0.00in /  0mm 0 W/m2
00:29 33.1 °F /  0.6 °C 24.6 °F /  -4.1 °C 29.31in /  992.4hPa WNW 5.7mph /  9.2km/h 22mph /  35.4km/h 70.6% 0.00in /  0mm 0 W/m2
00:34 32.9 °F /  0.5 °C 24.5 °F /  -4.2 °C 29.32in /  992.8hPa WNW 7.3mph /  11.7km/h 22mph /  35.4km/h 71% 0.00in /  0mm 0 W/m2
00:39 32.8 °F /  0.4 °C 24.7 °F /  -4.1 °C 29.32in /  992.8hPa WNW 8mph /  12.9km/h 15mph /  24.1km/h 71.8% 0.00in /  0mm 0 W/m2
00:44 32.6 °F /  0.3 °C 24.7 °F /  -4.1 °C 29.32in /  992.8hPa WNW 7.6mph /  12.2km/h 17mph /  27.4km/h 72.6% 0.00in /  0mm 0 W/m2
00:49 32.4 °F /  0.2 °C 25 °F /  -3.9 °C 29.33in /  993.1hPa WNW 11.2mph /  18km/h 30mph /  48.3km/h 73.7% 0.00in /  0mm 0 W/m2
00:54 32.2 °F /  0.1 °C 25.2 °F /  -3.8 °C 29.33in /  993.1hPa WNW 11.7mph /  18.8km/h 30mph /  48.3km/h 75% 0.00in /  0mm 0 W/m2
00:59 32.1 °F /  0.1 °C 25.3 °F /  -3.7 °C 29.33in /  993.1hPa WNW 8.2mph /  13.2km/h 30mph /  48.3km/h 75.8% 0.00in /  0mm 0 W/m2
01:04 32 °F /  0 °C 25.5 °F /  -3.6 °C 29.34in /  993.5hPa WNW 9.3mph /  15km/h 30mph /  48.3km/h 76.6% 0.00in /  0mm 0 W/m2
01:09 31.9 °F /  -0.1 °C 25.7 °F /  -3.5 °C 29.34in /  993.5hPa WNW 5.8mph /  9.3km/h 16mph /  25.7km/h 77.5% 0.00in /  0mm 0 W/m2
01:14 31.9 °F /  -0.1 °C 25.8 °F /  -3.4 °C 29.35in /  993.8hPa West 3.4mph /  5.5km/h 16mph /  25.7km/h 78% 0.00in /  0mm 0 W/m2
01:19 31.8 °F /  -0.1 °C 25.9 °F /  -3.4 °C 29.35in /  993.8hPa WNW 3.6mph /  5.8km/h 16mph /  25.7km/h 78.4% 0.00in /  0mm 0 W/m2
01:24 31.7 °F /  -0.2 °C 26 °F /  -3.3 °C 29.35in /  993.8hPa WNW 2.7mph /  4.3km/h 16mph /  25.7km/h 79% 0.00in /  0mm 0 W/m2
01:29 31.7 °F /  -0.2 °C 25.9 °F /  -3.4 °C 29.35in /  993.8hPa WNW 7.2mph /  11.6km/h 16mph /  25.7km/h 79% 0.00in /  0mm 0 W/m2
01:34 31.6 °F /  -0.2 °C 25.9 °F /  -3.4 °C 29.36in /  994.1hPa WNW 6.9mph /  11.1km/h 16mph /  25.7km/h 79% 0.00in /  0mm 0 W/m2
01:39 31.6 °F /  -0.2 °C 25.9 °F /  -3.4 °C 29.36in /  994.1hPa WNW 6.5mph /  10.5km/h 16mph /  25.7km/h 79% 0.00in /  0mm 0 W/m2
01:44 31.6 °F /  -0.2 °C 25.9 °F /  -3.4 °C 29.36in /  994.1hPa WNW 6mph /  9.7km/h 16mph /  25.7km/h 79% 0.00in /  0mm 0 W/m2
01:49 31.6 °F /  -0.2 °C 25.9 °F /  -3.4 °C 29.36in /  994.1hPa NW 6.6mph /  10.6km/h 19mph /  30.6km/h 79% 0.00in /  0mm 0 W/m2
01:54 31.6 °F /  -0.2 °C 25.4 °F /  -3.7 °C 29.37in /  994.5hPa WNW 8.6mph /  13.8km/h 19mph /  30.6km/h 77.7% 0.00in /  0mm 0 W/m2
01:59 31.7 °F /  -0.2 °C 25 °F /  -3.9 °C 29.38in /  994.8hPa WNW 11mph /  17.7km/h 21mph /  33.8km/h 76.1% 0.00in /  0mm 0 W/m2
02:04 31.8 °F /  -0.1 °C 24.8 °F /  -4 °C 29.38in /  994.8hPa WNW 6.4mph /  10.3km/h 22mph /  35.4km/h 75% 0.00in /  0mm 0 W/m2
02:09 31.9 °F /  -0.1 °C 24.6 °F /  -4.1 °C 29.39in /  995.1hPa WNW 8.1mph /  13km/h 22mph /  35.4km/h 74.2% 0.00in /  0mm 0 W/m2
02:14 31.8 °F /  -0.1 °C 24 °F /  -4.4 °C 29.39in /  995.1hPa WNW 9mph /  14.5km/h 22mph /  35.4km/h 72.4% 0.00in /  0mm 0 W/m2
02:19 31.8 °F /  -0.1 °C 23.8 °F /  -4.6 °C 29.39in /  995.1hPa WNW 4.8mph /  7.7km/h 22mph /  35.4km/h 72% 0.00in /  0mm 0 W/m2
02:24 31.7 °F /  -0.2 °C 23.6 °F /  -4.7 °C 29.40in /  995.5hPa WNW 4mph /  6.4km/h 22mph /  35.4km/h 71.6% 0.00in /  0mm 0 W/m2
02:29 31.6 °F /  -0.2 °C 23.3 °F /  -4.8 °C 29.40in /  995.5hPa WNW 2.9mph /  4.7km/h 22mph /  35.4km/h 71% 0.00in /  0mm 0 W/m2
02:34 31.5 °F /  -0.3 °C 23.2 °F /  -4.9 °C 29.41in /  995.8hPa NW 3.6mph /  5.8km/h 22mph /  35.4km/h 70.9% 0.00in /  0mm 0 W/m2
02:39 31.4 °F /  -0.3 °C 22.8 °F /  -5.1 °C 29.41in /  995.8hPa NW 3.7mph /  6km/h 15mph /  24.1km/h 70% 0.00in /  0mm 0 W/m2
02:44 31.3 °F /  -0.4 °C 22.3 °F /  -5.4 °C 29.41in /  995.8hPa WNW 10mph /  16.1km/h 23mph /  37km/h 68.9% 0.00in /  0mm 0 W/m2
02:49 31.2 °F /  -0.4 °C 22 °F /  -5.6 °C 29.42in /  996.2hPa NW 6.1mph /  9.8km/h 23mph /  37km/h 68.5% 0.00in /  0mm 0 W/m2
02:54 31 °F /  -0.6 °C 21.9 °F /  -5.6 °C 29.42in /  996.2hPa NW 4.6mph /  7.4km/h 23mph /  37km/h 68.5% 0.00in /  0mm 0 W/m2
02:59 30.8 °F /  -0.7 °C 21.5 °F /  -5.8 °C 29.42in /  996.2hPa WNW 6.3mph /  10.1km/h 23mph /  37km/h 68% 0.00in /  0mm 0 W/m2
03:04 30.7 °F /  -0.7 °C 21.5 °F /  -5.8 °C 29.43in /  996.5hPa WNW 6.9mph /  11.1km/h 23mph /  37km/h 68% 0.00in /  0mm 0 W/m2
03:09 30.7 °F /  -0.7 °C 21.4 °F /  -5.9 °C 29.43in /  996.5hPa WNW 8.7mph /  14km/h 16mph /  25.7km/h 68% 0.00in /  0mm 0 W/m2
03:14 30.7 °F /  -0.7 °C 21.4 °F /  -5.9 °C 29.43in /  996.5hPa WNW 11.3mph /  18.2km/h 21mph /  33.8km/h 68% 0.00in /  0mm 0 W/m2
03:19 30.6 °F /  -0.8 °C 21.3 °F /  -5.9 °C 29.44in /  996.8hPa WNW 8.6mph /  13.8km/h 22mph /  35.4km/h 68% 0.00in /  0mm 0 W/m2
03:24 30.6 °F /  -0.8 °C 21.3 °F /  -5.9 °C 29.44in /  996.8hPa WNW 10.4mph /  16.7km/h 22mph /  35.4km/h 68% 0.00in /  0mm 0 W/m2
03:29 30.6 °F /  -0.8 °C 21.2 °F /  -6 °C 29.44in /  996.8hPa NW 7.6mph /  12.2km/h 22mph /  35.4km/h 67.5% 0.00in /  0mm 0 W/m2
03:34 30.5 °F /  -0.8 °C 21.2 °F /  -6 °C 29.45in /  997.2hPa WNW 7.1mph /  11.4km/h 22mph /  35.4km/h 68% 0.00in /  0mm 0 W/m2
03:39 30.5 °F /  -0.8 °C 21.2 °F /  -6 °C 29.45in /  997.2hPa WNW 3.6mph /  5.8km/h 13mph /  20.9km/h 68% 0.00in /  0mm 0 W/m2
03:44 30.4 °F /  -0.9 °C 21.2 °F /  -6 °C 29.45in /  997.2hPa WNW 2.1mph /  3.4km/h 13mph /  20.9km/h 68.2% 0.00in /  0mm 0 W/m2
03:49 30.3 °F /  -0.9 °C 21.4 °F /  -5.9 °C 29.46in /  997.5hPa WNW 6.2mph /  10km/h 17mph /  27.4km/h 69% 0.00in /  0mm 0 W/m2
03:54 30.3 °F /  -0.9 °C 21.1 °F /  -6.1 °C 29.46in /  997.5hPa NW 8.9mph /  14.3km/h 20mph /  32.2km/h 68.3% 0.00in /  0mm 0 W/m2
03:59 30.4 °F /  -0.9 °C 21.1 °F /  -6.1 °C 29.46in /  997.5hPa WNW 8.7mph /  14km/h 22mph /  35.4km/h 68% 0.00in /  0mm 0 W/m2
04:00 30.4 °F /  -0.9 °C 21.1 °F /  -6.1 °C 29.46in /  997.5hPa WNW 19mph /  30.6km/h 22mph /  35.4km/h 68% 0.00in /  0mm 0 W/m2
04:09 30.4 °F /  -0.9 °C 21.1 °F /  -6.1 °C 29.47in /  997.9hPa NW 7.4mph /  11.9km/h 13mph /  20.9km/h 68% 0.00in /  0mm 0 W/m2
04:14 30.4 °F /  -0.9 °C 21.1 °F /  -6.1 °C 29.48in /  998.2hPa WNW 8.4mph /  13.5km/h 19mph /  30.6km/h 68% 0.00in /  0mm 0 W/m2
04:19 30.3 °F /  -0.9 °C 20.8 °F /  -6.2 °C 29.48in /  998.2hPa WNW 11.2mph /  18km/h 20mph /  32.2km/h 67.3% 0.00in /  0mm 0 W/m2
04:24 30.3 °F /  -0.9 °C 20.7 °F /  -6.3 °C 29.48in /  998.2hPa NW 6mph /  9.7km/h 20mph /  32.2km/h 67% 0.00in /  0mm 0 W/m2
04:29 30.3 °F /  -0.9 °C 21 °F /  -6.1 °C 29.49in /  998.5hPa NW 3.9mph /  6.3km/h 20mph /  32.2km/h 68% 0.00in /  0mm 0 W/m2
04:34 30.2 °F /  -1 °C 20.9 °F /  -6.2 °C 29.49in /  998.5hPa WNW 5.9mph /  9.5km/h 20mph /  32.2km/h 68% 0.00in /  0mm 0 W/m2
04:39 30 °F /  -1.1 °C 20.8 °F /  -6.2 °C 29.50in /  998.9hPa NW 8.7mph /  14km/h 17mph /  27.4km/h 68% 0.00in /  0mm 0 W/m2
04:44 30 °F /  -1.1 °C 20.4 °F /  -6.4 °C 29.50in /  998.9hPa WNW 11.3mph /  18.2km/h 21mph /  33.8km/h 67.1% 0.00in /  0mm 0 W/m2
04:49 30 °F /  -1.1 °C 20.4 °F /  -6.4 °C 29.51in /  999.2hPa WNW 7mph /  11.3km/h 21mph /  33.8km/h 67% 0.00in /  0mm 0 W/m2
04:54 29.9 °F /  -1.2 °C 20.2 °F /  -6.6 °C 29.51in /  999.2hPa NW 7mph /  11.3km/h 21mph /  33.8km/h 66.7% 0.00in /  0mm 0 W/m2
04:59 29.8 °F /  -1.2 °C 19.9 °F /  -6.7 °C 29.51in /  999.2hPa NW 12.7mph /  20.4km/h 21mph /  33.8km/h 66% 0.00in /  0mm 0 W/m2
05:04 29.7 °F /  -1.3 °C 19.7 °F /  -6.8 °C 29.52in /  999.5hPa WNW 8mph /  12.9km/h 21mph /  33.8km/h 65.7% 0.00in /  0mm 0 W/m2
05:09 29.6 °F /  -1.3 °C 19.3 °F /  -7.1 °C 29.52in /  999.5hPa WNW 9.1mph /  14.6km/h 24mph /  38.6km/h 65% 0.00in /  0mm 0 W/m2
05:14 29.5 °F /  -1.4 °C 19.2 °F /  -7.1 °C 29.53in /  999.9hPa WNW 8.8mph /  14.2km/h 24mph /  38.6km/h 65% 0.00in /  0mm 0 W/m2
05:19 29.4 °F /  -1.4 °C 19.1 °F /  -7.2 °C 29.53in /  999.9hPa NW 12.8mph /  20.6km/h 24mph /  38.6km/h 65% 0.00in /  0mm 0 W/m2
05:24 29.3 °F /  -1.5 °C 18.9 °F /  -7.3 °C 29.53in /  999.9hPa NW 11mph /  17.7km/h 24mph /  38.6km/h 64.6% 0.00in /  0mm 0 W/m2
05:29 29.2 °F /  -1.6 °C 18.9 °F /  -7.3 °C 29.54in /  1000.2hPa WNW 5.2mph /  8.4km/h 24mph /  38.6km/h 64.8% 0.00in /  0mm 0 W/m2
05:34 29.1 °F /  -1.6 °C 18.8 °F /  -7.3 °C 29.55in /  1000.6hPa WNW 9.1mph /  14.6km/h 24mph /  38.6km/h 65% 0.00in /  0mm 0 W/m2
05:39 29 °F /  -1.7 °C 18.6 °F /  -7.4 °C 29.55in /  1000.6hPa WNW 8.2mph /  13.2km/h 22mph /  35.4km/h 64.7% 0.00in /  0mm 0 W/m2
05:44 29 °F /  -1.7 °C 18.4 °F /  -7.6 °C 29.56in /  1000.9hPa WNW 8.6mph /  13.8km/h 22mph /  35.4km/h 64% 0.00in /  0mm 0 W/m2
05:49 29 °F /  -1.7 °C 18.4 °F /  -7.6 °C 29.56in /  1000.9hPa WNW 10mph /  16.1km/h 22mph /  35.4km/h 64.3% 0.00in /  0mm 0 W/m2
05:54 28.9 °F /  -1.7 °C 18.5 °F /  -7.5 °C 29.56in /  1000.9hPa WNW 7.8mph /  12.6km/h 22mph /  35.4km/h 64.6% 0.00in /  0mm 0 W/m2
05:59 28.9 °F /  -1.7 °C 18.3 °F /  -7.6 °C 29.57in /  1001.2hPa NW 10.6mph /  17.1km/h 22mph /  35.4km/h 64.1% 0.00in /  0mm 0 W/m2
06:04 28.9 °F /  -1.7 °C 18 °F /  -7.8 °C 29.57in /  1001.2hPa WNW 10.8mph /  17.4km/h 22mph /  35.4km/h 63.3% 0.00in /  0mm 0 W/m2
06:09 28.9 °F /  -1.7 °C 17.9 °F /  -7.8 °C 29.58in /  1001.6hPa WNW 7.9mph /  12.7km/h 18mph /  29km/h 63% 0.00in /  0mm 0 W/m2
06:14 28.9 °F /  -1.7 °C 17.9 °F /  -7.8 °C 29.59in /  1001.9hPa WNW 9.3mph /  15km/h 27mph /  43.5km/h 63% 0.00in /  0mm 0 W/m2
06:19 28.8 °F /  -1.8 °C 17.8 °F /  -7.9 °C 29.60in /  1002.3hPa WNW 10.2mph /  16.4km/h 27mph /  43.5km/h 63.1% 0.00in /  0mm 0 W/m2
06:24 28.7 °F /  -1.8 °C 17.8 °F /  -7.9 °C 29.60in /  1002.3hPa NW 11.3mph /  18.2km/h 27mph /  43.5km/h 63.1% 0.00in /  0mm 0 W/m2
06:29 28.7 °F /  -1.8 °C 17.7 °F /  -7.9 °C 29.61in /  1002.6hPa WNW 10.8mph /  17.4km/h 27mph /  43.5km/h 63% 0.00in /  0mm 0 W/m2
06:34 28.5 °F /  -1.9 °C 17.7 °F /  -7.9 °C 29.61in /  1002.6hPa WNW 10.2mph /  16.4km/h 27mph /  43.5km/h 63.4% 0.00in /  0mm 0 W/m2
06:39 28.4 °F /  -2 °C 17.5 °F /  -8.1 °C 29.62in /  1002.9hPa WNW 9.8mph /  15.8km/h 21mph /  33.8km/h 63.2% 0.00in /  0mm 0 W/m2
06:44 28.3 °F /  -2.1 °C 17.7 °F /  -7.9 °C 29.62in /  1002.9hPa WNW 9.3mph /  15km/h 24mph /  38.6km/h 64% 0.00in /  0mm 0 W/m2
06:49 28.3 °F /  -2.1 °C 17.6 °F /  -8 °C 29.62in /  1002.9hPa WNW 12.5mph /  20.1km/h 24mph /  38.6km/h 63.7% 0.00in /  0mm 0 W/m2
06:54 28.2 °F /  -2.1 °C 17.3 °F /  -8.2 °C 29.62in /  1002.9hPa WNW 10.4mph /  16.7km/h 24mph /  38.6km/h 63.2% 0.00in /  0mm 0 W/m2
06:59 28.2 °F /  -2.1 °C 17.2 °F /  -8.2 °C 29.63in /  1003.3hPa WNW 11.5mph /  18.5km/h 24mph /  38.6km/h 63.2% 0.00in /  0mm 0 W/m2
07:04 28.1 °F /  -2.2 °C 17.3 °F /  -8.2 °C 29.63in /  1003.3hPa WNW 10.5mph /  16.9km/h 24mph /  38.6km/h 63.3% 0.00in /  0mm 0 W/m2
07:09 28 °F /  -2.2 °C 17.4 °F /  -8.1 °C 29.64in /  1003.6hPa WNW 9.3mph /  15km/h 23mph /  37km/h 63.9% 0.00in /  0mm 0 W/m2
07:14 28 °F /  -2.2 °C 17.4 °F /  -8.1 °C 29.64in /  1003.6hPa WNW 12.7mph /  20.4km/h 23mph /  37km/h 63.8% 0.00in /  0mm 0 W/m2
07:19 27.9 °F /  -2.3 °C 17.3 °F /  -8.2 °C 29.65in /  1003.9hPa NW 7.2mph /  11.6km/h 23mph /  37km/h 64% 0.00in /  0mm 7 W/m2
07:23 27.9 °F /  -2.3 °C 17.3 °F /  -8.2 °C 29.65in /  1003.9hPa WNW 8.4mph /  13.5km/h 23mph /  37km/h 64% 0.00in /  0mm 7 W/m2
Hartford County Weather
Compliments of Weather Underground - 4 mb